sensor_id;sensor_type;location;lat;lon;timestamp;P1;durP1;ratioP1;P2;durP2;ratioP2
16837;SDS011;19510;54.486;9.046;2022-09-29T05:59:48;2.80;;;1.00;;
16837;SDS011;19510;54.486;9.046;2022-09-29T06:05:39;1.30;;;1.00;;
16837;SDS011;19510;54.486;9.046;2022-09-29T06:08:05;2.00;;;1.27;;
16837;SDS011;19510;54.486;9.046;2022-09-29T06:10:32;3.15;;;2.03;;
16837;SDS011;19510;54.486;9.046;2022-09-29T06:12:58;1.67;;;1.08;;
16837;SDS011;19510;54.486;9.046;2022-09-29T06:15:24;2.92;;;1.33;;
16837;SDS011;19510;54.486;9.046;2022-09-29T06:17:58;2.67;;;1.20;;
16837;SDS011;19510;54.486;9.046;2022-09-29T06:20:25;2.25;;;0.90;;
16837;SDS011;19510;54.486;9.046;2022-09-29T06:22:54;2.20;;;1.00;;
16837;SDS011;19510;54.486;9.046;2022-09-29T06:25:21;1.00;;;0.80;;
16837;SDS011;19510;54.486;9.046;2022-09-29T06:27:47;1.85;;;1.08;;
16837;SDS011;19510;54.486;9.046;2022-09-29T06:30:13;2.15;;;1.25;;
16837;SDS011;19510;54.486;9.046;2022-09-29T06:32:39;2.17;;;0.85;;
16837;SDS011;19510;54.486;9.046;2022-09-29T06:35:06;1.05;;;0.80;;
16837;SDS011;19510;54.486;9.046;2022-09-29T06:41:11;1.33;;;0.80;;
16837;SDS011;19510;54.486;9.046;2022-09-29T06:43:36;2.80;;;1.00;;
16837;SDS011;19510;54.486;9.046;2022-09-29T06:46:02;0.70;;;0.70;;
16837;SDS011;19510;54.486;9.046;2022-09-29T06:48:31;1.10;;;1.00;;
16837;SDS011;19510;54.486;9.046;2022-09-29T06:50:57;1.42;;;1.05;;
16837;SDS011;19510;54.486;9.046;2022-09-29T06:53:33;2.15;;;1.40;;
16837;SDS011;19510;54.486;9.046;2022-09-29T06:56:32;2.25;;;1.10;;
16837;SDS011;19510;54.486;9.046;2022-09-29T06:58:58;2.03;;;1.30;;
16837;SDS011;19510;54.486;9.046;2022-09-29T07:01:24;4.70;;;1.20;;
16837;SDS011;19510;54.486;9.046;2022-09-29T07:03:50;0.90;;;0.85;;
16837;SDS011;19510;54.486;9.046;2022-09-29T07:06:16;1.27;;;0.85;;
16837;SDS011;19510;54.486;9.046;2022-09-29T07:08:41;0.60;;;0.60;;
16837;SDS011;19510;54.486;9.046;2022-09-29T07:11:08;1.20;;;0.73;;
16837;SDS011;19510;54.486;9.046;2022-09-29T07:13:34;3.15;;;0.60;;
16837;SDS011;19510;54.486;9.046;2022-09-29T07:16:04;0.52;;;0.50;;
16837;SDS011;19510;54.486;9.046;2022-09-29T07:18:34;2.10;;;1.08;;
16837;SDS011;19510;54.486;9.046;2022-09-29T07:21:02;4.20;;;2.03;;
16837;SDS011;19510;54.486;9.046;2022-09-29T07:23:32;1.52;;;1.05;;
16837;SDS011;19510;54.486;9.046;2022-09-29T07:25:58;1.20;;;0.73;;
16837;SDS011;19510;54.486;9.046;2022-09-29T07:28:23;0.50;;;0.50;;
16837;SDS011;19510;54.486;9.046;2022-09-29T07:31:00;0.50;;;0.50;;
16837;SDS011;19510;54.486;9.046;2022-09-29T07:33:27;1.38;;;0.40;;
16837;SDS011;19510;54.486;9.046;2022-09-29T07:35:54;0.65;;;0.40;;
16837;SDS011;19510;54.486;9.046;2022-09-29T07:38:20;2.88;;;0.57;;
16837;SDS011;19510;54.486;9.046;2022-09-29T07:40:46;0.85;;;0.55;;
16837;SDS011;19510;54.486;9.046;2022-09-29T07:43:12;0.50;;;0.50;;
16837;SDS011;19510;54.486;9.046;2022-09-29T07:45:37;0.50;;;0.50;;
16837;SDS011;19510;54.486;9.046;2022-09-29T07:48:03;0.50;;;0.50;;
16837;SDS011;19510;54.486;9.046;2022-09-29T07:50:29;0.47;;;0.40;;
16837;SDS011;19510;54.486;9.046;2022-09-29T07:52:55;0.40;;;0.40;;
16837;SDS011;19510;54.486;9.046;2022-09-29T07:55:23;2.03;;;0.40;;
16837;SDS011;19510;54.486;9.046;2022-09-29T07:57:51;0.95;;;0.50;;
16837;SDS011;19510;54.486;9.046;2022-09-29T08:00:17;0.35;;;0.35;;
16837;SDS011;19510;54.486;9.046;2022-09-29T08:02:42;1.45;;;0.40;;
16837;SDS011;19510;54.486;9.046;2022-09-29T08:05:08;2.08;;;0.40;;
16837;SDS011;19510;54.486;9.046;2022-09-29T08:07:34;0.60;;;0.30;;
16837;SDS011;19510;54.486;9.046;2022-09-29T08:10:02;0.47;;;0.40;;
16837;SDS011;19510;54.486;9.046;2022-09-29T08:12:28;0.25;;;0.25;;
16837;SDS011;19510;54.486;9.046;2022-09-29T08:14:53;2.30;;;0.40;;
16837;SDS011;19510;54.486;9.046;2022-09-29T08:17:21;2.08;;;0.40;;
16837;SDS011;19510;54.486;9.046;2022-09-29T08:19:47;2.28;;;0.60;;
16837;SDS011;19510;54.486;9.046;2022-09-29T08:22:12;0.52;;;0.35;;
16837;SDS011;19510;54.486;9.046;2022-09-29T08:24:38;1.38;;;0.70;;
16837;SDS011;19510;54.486;9.046;2022-09-29T08:27:04;4.47;;;1.20;;
16837;SDS011;19510;54.486;9.046;2022-09-29T08:29:31;1.15;;;0.95;;
16837;SDS011;19510;54.486;9.046;2022-09-29T08:31:57;1.55;;;0.70;;
16837;SDS011;19510;54.486;9.046;2022-09-29T08:34:23;1.42;;;0.60;;
16837;SDS011;19510;54.486;9.046;2022-09-29T08:36:49;6.80;;;0.57;;
16837;SDS011;19510;54.486;9.046;2022-09-29T08:39:17;0.93;;;0.60;;
16837;SDS011;19510;54.486;9.046;2022-09-29T08:52:30;1.77;;;0.60;;
16837;SDS011;19510;54.486;9.046;2022-09-29T08:57:45;2.05;;;0.57;;
16837;SDS011;19510;54.486;9.046;2022-09-29T09:00:15;3.63;;;0.68;;
16837;SDS011;19510;54.486;9.046;2022-09-29T09:08:53;0.30;;;0.30;;
16837;SDS011;19510;54.486;9.046;2022-09-29T09:19:56;0.40;;;0.40;;
16837;SDS011;19510;54.486;9.046;2022-09-29T09:25:28;0.75;;;0.57;;
16837;SDS011;19510;54.486;9.046;2022-09-29T09:30:50;3.70;;;0.93;;
16837;SDS011;19510;54.486;9.046;2022-09-29T09:35:51;2.92;;;0.50;;
16837;SDS011;19510;54.486;9.046;2022-09-29T09:38:26;3.28;;;0.60;;
16837;SDS011;19510;54.486;9.046;2022-09-29T09:41:06;0.52;;;0.40;;
16837;SDS011;19510;54.486;9.046;2022-09-29T09:43:36;0.40;;;0.40;;
16837;SDS011;19510;54.486;9.046;2022-09-29T09:49:09;0.38;;;0.38;;
16837;SDS011;19510;54.486;9.046;2022-09-29T09:52:01;0.40;;;0.40;;
16837;SDS011;19510;54.486;9.046;2022-09-29T09:54:32;3.40;;;0.70;;
16837;SDS011;19510;54.486;9.046;2022-09-29T10:02:26;0.68;;;0.40;;
16837;SDS011;19510;54.486;9.046;2022-09-29T10:04:54;4.35;;;0.65;;
16837;SDS011;19510;54.486;9.046;2022-09-29T10:07:24;2.08;;;0.45;;
16837;SDS011;19510;54.486;9.046;2022-09-29T10:09:52;2.03;;;0.60;;
16837;SDS011;19510;54.486;9.046;2022-09-29T10:12:18;1.48;;;0.50;;
16837;SDS011;19510;54.486;9.046;2022-09-29T10:14:58;5.43;;;0.85;;
16837;SDS011;19510;54.486;9.046;2022-09-29T10:17:31;1.75;;;0.63;;
16837;SDS011;19510;54.486;9.046;2022-09-29T10:20:04;2.58;;;0.77;;
16837;SDS011;19510;54.486;9.046;2022-09-29T10:22:32;1.38;;;0.55;;
16837;SDS011;19510;54.486;9.046;2022-09-29T10:27:41;3.13;;;1.10;;
16837;SDS011;19510;54.486;9.046;2022-09-29T10:33:04;3.50;;;1.40;;
16837;SDS011;19510;54.486;9.046;2022-09-29T10:35:38;1.55;;;1.17;;
16837;SDS011;19510;54.486;9.046;2022-09-29T10:38:24;3.47;;;1.52;;
16837;SDS011;19510;54.486;9.046;2022-09-29T10:43:33;1.83;;;1.60;;
16837;SDS011;19510;54.486;9.046;2022-09-29T10:46:05;2.60;;;1.70;;
16837;SDS011;19510;54.486;9.046;2022-09-29T10:51:55;2.65;;;1.73;;
16837;SDS011;19510;54.486;9.046;2022-09-29T10:54:22;3.92;;;2.10;;
16837;SDS011;19510;54.486;9.046;2022-09-29T10:56:50;6.80;;;2.17;;
16837;SDS011;19510;54.486;9.046;2022-09-29T10:59:16;2.65;;;1.80;;
16837;SDS011;19510;54.486;9.046;2022-09-29T11:01:44;5.07;;;2.13;;
16837;SDS011;19510;54.486;9.046;2022-09-29T11:04:37;5.32;;;2.05;;
16837;SDS011;19510;54.486;9.046;2022-09-29T11:07:07;3.47;;;1.88;;
16837;SDS011;19510;54.486;9.046;2022-09-29T11:09:40;3.83;;;2.38;;
16837;SDS011;19510;54.486;9.046;2022-09-29T11:14:53;4.80;;;2.38;;
16837;SDS011;19510;54.486;9.046;2022-09-29T11:17:20;4.72;;;2.40;;
16837;SDS011;19510;54.486;9.046;2022-09-29T11:19:49;4.75;;;2.40;;
16837;SDS011;19510;54.486;9.046;2022-09-29T11:28:32;7.45;;;2.85;;
16837;SDS011;19510;54.486;9.046;2022-09-29T11:31:16;5.60;;;2.40;;
16837;SDS011;19510;54.486;9.046;2022-09-29T11:34:03;4.97;;;2.78;;
16837;SDS011;19510;54.486;9.046;2022-09-29T11:39:45;4.53;;;2.83;;
16837;SDS011;19510;54.486;9.046;2022-09-29T11:42:36;6.78;;;2.80;;
16837;SDS011;19510;54.486;9.046;2022-09-29T11:45:08;5.20;;;2.75;;
16837;SDS011;19510;54.486;9.046;2022-09-29T12:10:07;3.60;;;2.67;;
16837;SDS011;19510;54.486;9.046;2022-09-29T12:18:09;7.05;;;2.85;;
16837;SDS011;19510;54.486;9.046;2022-09-29T12:20:44;5.35;;;2.95;;
16837;SDS011;19510;54.486;9.046;2022-09-29T12:23:17;7.60;;;2.83;;
16837;SDS011;19510;54.486;9.046;2022-09-29T12:25:52;4.55;;;2.45;;
16837;SDS011;19510;54.486;9.046;2022-09-29T12:28:47;5.68;;;2.78;;
16837;SDS011;19510;54.486;9.046;2022-09-29T12:31:27;7.82;;;3.30;;
16837;SDS011;19510;54.486;9.046;2022-09-29T12:33:58;9.13;;;2.90;;
16837;SDS011;19510;54.486;9.046;2022-09-29T12:46:02;5.88;;;3.42;;
16837;SDS011;19510;54.486;9.046;2022-09-29T12:51:02;5.53;;;3.25;;
16837;SDS011;19510;54.486;9.046;2022-09-29T12:53:51;3.17;;;2.60;;
16837;SDS011;19510;54.486;9.046;2022-09-29T12:56:23;9.05;;;2.55;;
16837;SDS011;19510;54.486;9.046;2022-09-29T12:59:08;6.75;;;2.60;;
16837;SDS011;19510;54.486;9.046;2022-09-29T13:01:37;8.95;;;2.70;;
16837;SDS011;19510;54.486;9.046;2022-09-29T13:15:50;6.22;;;2.80;;
16837;SDS011;19510;54.486;9.046;2022-09-29T13:29:13;3.85;;;2.70;;
16837;SDS011;19510;54.486;9.046;2022-09-29T13:31:43;4.90;;;2.35;;
16837;SDS011;19510;54.486;9.046;2022-09-29T13:36:45;5.40;;;2.67;;
16837;SDS011;19510;54.486;9.046;2022-09-29T13:39:24;5.70;;;3.25;;
16837;SDS011;19510;54.486;9.046;2022-09-29T13:41:52;5.03;;;2.13;;
16837;SDS011;19510;54.486;9.046;2022-09-29T13:44:25;3.53;;;2.10;;
16837;SDS011;19510;54.486;9.046;2022-09-29T13:46:52;2.60;;;1.77;;
16837;SDS011;19510;54.486;9.046;2022-09-29T13:51:52;3.28;;;1.98;;
16837;SDS011;19510;54.486;9.046;2022-09-29T13:59:44;2.85;;;1.92;;
16837;SDS011;19510;54.486;9.046;2022-09-29T14:02:19;3.47;;;2.00;;
16837;SDS011;19510;54.486;9.046;2022-09-29T14:04:58;2.22;;;1.70;;
16837;SDS011;19510;54.486;9.046;2022-09-29T14:07:35;5.22;;;2.42;;
16837;SDS011;19510;54.486;9.046;2022-09-29T14:10:17;3.55;;;2.33;;
16837;SDS011;19510;54.486;9.046;2022-09-29T14:19:30;4.32;;;2.60;;
16837;SDS011;19510;54.486;9.046;2022-09-29T14:21:59;3.60;;;2.15;;
16837;SDS011;19510;54.486;9.046;2022-09-29T14:30:10;3.40;;;2.60;;
16837;SDS011;19510;54.486;9.046;2022-09-29T14:32:45;3.95;;;3.25;;
16837;SDS011;19510;54.486;9.046;2022-09-29T14:37:58;5.22;;;2.15;;
16837;SDS011;19510;54.486;9.046;2022-09-29T14:40:38;3.35;;;2.08;;
16837;SDS011;19510;54.486;9.046;2022-09-29T14:43:18;4.25;;;2.33;;
16837;SDS011;19510;54.486;9.046;2022-09-29T14:51:35;5.38;;;2.65;;
16837;SDS011;19510;54.486;9.046;2022-09-29T14:57:22;3.13;;;2.17;;
16837;SDS011;19510;54.486;9.046;2022-09-29T14:59:56;4.55;;;2.25;;
16837;SDS011;19510;54.486;9.046;2022-09-29T15:02:52;3.58;;;2.15;;
16837;SDS011;19510;54.486;9.046;2022-09-29T15:07:54;5.38;;;2.38;;
16837;SDS011;19510;54.486;9.046;2022-09-29T15:10:25;4.97;;;2.17;;
16837;SDS011;19510;54.486;9.046;2022-09-29T15:12:51;2.45;;;2.10;;
16837;SDS011;19510;54.486;9.046;2022-09-29T15:15:38;5.03;;;2.28;;
16837;SDS011;19510;54.486;9.046;2022-09-29T15:18:16;4.22;;;2.33;;
16837;SDS011;19510;54.486;9.046;2022-09-29T15:21:00;3.30;;;2.17;;
16837;SDS011;19510;54.486;9.046;2022-09-29T15:26:28;7.07;;;1.80;;
16837;SDS011;19510;54.486;9.046;2022-09-29T15:28:57;6.95;;;2.00;;
16837;SDS011;19510;54.486;9.046;2022-09-29T15:31:27;5.25;;;2.40;;
16837;SDS011;19510;54.486;9.046;2022-09-29T15:33:58;3.33;;;2.10;;
16837;SDS011;19510;54.486;9.046;2022-09-29T15:36:29;3.28;;;2.30;;
16837;SDS011;19510;54.486;9.046;2022-09-29T15:39:01;3.22;;;2.20;;
16837;SDS011;19510;54.486;9.046;2022-09-29T15:41:30;3.13;;;2.50;;
16837;SDS011;19510;54.486;9.046;2022-09-29T15:44:03;3.67;;;2.25;;
16837;SDS011;19510;54.486;9.046;2022-09-29T15:46:46;4.50;;;2.47;;
16837;SDS011;19510;54.486;9.046;2022-09-29T15:49:31;6.45;;;2.35;;
16837;SDS011;19510;54.486;9.046;2022-09-29T15:54:33;2.33;;;1.80;;
16837;SDS011;19510;54.486;9.046;2022-09-29T15:57:04;3.55;;;1.98;;
16837;SDS011;19510;54.486;9.046;2022-09-29T15:59:50;4.88;;;2.10;;
16837;SDS011;19510;54.486;9.046;2022-09-29T16:02:29;3.67;;;2.20;;
16837;SDS011;19510;54.486;9.046;2022-09-29T16:05:06;6.30;;;2.65;;
16837;SDS011;19510;54.486;9.046;2022-09-29T16:07:38;3.15;;;2.15;;
16837;SDS011;19510;54.486;9.046;2022-09-29T16:10:17;6.10;;;2.40;;
16837;SDS011;19510;54.486;9.046;2022-09-29T16:12:54;4.75;;;2.50;;
16837;SDS011;19510;54.486;9.046;2022-09-29T16:15:29;2.63;;;1.98;;
16837;SDS011;19510;54.486;9.046;2022-09-29T16:17:57;2.20;;;2.00;;
16837;SDS011;19510;54.486;9.046;2022-09-29T16:20:27;4.35;;;1.95;;
16837;SDS011;19510;54.486;9.046;2022-09-29T16:22:55;3.53;;;2.58;;
16837;SDS011;19510;54.486;9.046;2022-09-29T16:25:29;5.38;;;2.35;;
16837;SDS011;19510;54.486;9.046;2022-09-29T16:27:59;5.82;;;2.45;;
16837;SDS011;19510;54.486;9.046;2022-09-29T16:30:32;3.60;;;2.20;;
16837;SDS011;19510;54.486;9.046;2022-09-29T16:38:53;2.47;;;2.20;;
16837;SDS011;19510;54.486;9.046;2022-09-29T16:44:41;5.53;;;2.60;;
16837;SDS011;19510;54.486;9.046;2022-09-29T16:52:23;3.28;;;2.33;;
16837;SDS011;19510;54.486;9.046;2022-09-29T16:54:53;3.35;;;2.40;;
16837;SDS011;19510;54.486;9.046;2022-09-29T16:57:50;2.10;;;1.77;;
16837;SDS011;19510;54.486;9.046;2022-09-29T17:00:19;3.17;;;1.80;;
16837;SDS011;19510;54.486;9.046;2022-09-29T17:02:49;3.35;;;2.20;;
16837;SDS011;19510;54.486;9.046;2022-09-29T17:05:21;7.25;;;2.17;;
16837;SDS011;19510;54.486;9.046;2022-09-29T17:07:49;3.00;;;2.45;;
16837;SDS011;19510;54.486;9.046;2022-09-29T17:10:17;5.72;;;3.03;;
16837;SDS011;19510;54.486;9.046;2022-09-29T17:12:44;4.20;;;2.58;;
16837;SDS011;19510;54.486;9.046;2022-09-29T17:15:13;5.07;;;2.40;;
16837;SDS011;19510;54.486;9.046;2022-09-29T17:17:41;8.25;;;2.75;;
16837;SDS011;19510;54.486;9.046;2022-09-29T17:20:13;4.85;;;2.97;;
16837;SDS011;19510;54.486;9.046;2022-09-29T17:22:42;4.13;;;3.05;;
16837;SDS011;19510;54.486;9.046;2022-09-29T17:25:09;5.72;;;3.58;;
16837;SDS011;19510;54.486;9.046;2022-09-29T17:27:38;6.68;;;3.60;;
16837;SDS011;19510;54.486;9.046;2022-09-29T17:30:24;5.53;;;3.72;;
16837;SDS011;19510;54.486;9.046;2022-09-29T17:32:52;7.75;;;3.40;;
16837;SDS011;19510;54.486;9.046;2022-09-29T17:35:20;4.53;;;3.08;;
16837;SDS011;19510;54.486;9.046;2022-09-29T17:37:54;5.50;;;2.67;;
16837;SDS011;19510;54.486;9.046;2022-09-29T17:40:30;5.68;;;2.88;;
16837;SDS011;19510;54.486;9.046;2022-09-29T17:42:59;3.55;;;2.65;;
16837;SDS011;19510;54.486;9.046;2022-09-29T17:45:26;6.10;;;2.70;;
16837;SDS011;19510;54.486;9.046;2022-09-29T17:47:59;3.65;;;2.55;;
16837;SDS011;19510;54.486;9.046;2022-09-29T17:50:33;4.28;;;2.50;;
16837;SDS011;19510;54.486;9.046;2022-09-29T17:53:03;4.30;;;2.60;;
16837;SDS011;19510;54.486;9.046;2022-09-29T17:55:29;4.55;;;2.55;;
16837;SDS011;19510;54.486;9.046;2022-09-29T17:57:55;11.25;;;7.32;;
16837;SDS011;19510;54.486;9.046;2022-09-29T18:02:51;3.50;;;2.70;;
16837;SDS011;19510;54.486;9.046;2022-09-29T18:05:21;4.10;;;2.50;;
16837;SDS011;19510;54.486;9.046;2022-09-29T18:07:52;2.72;;;2.10;;
16837;SDS011;19510;54.486;9.046;2022-09-29T18:10:23;3.28;;;2.60;;
16837;SDS011;19510;54.486;9.046;2022-09-29T18:12:51;4.63;;;2.40;;
16837;SDS011;19510;54.486;9.046;2022-09-29T18:15:17;3.45;;;2.10;;
16837;SDS011;19510;54.486;9.046;2022-09-29T18:17:43;6.38;;;2.53;;
16837;SDS011;19510;54.486;9.046;2022-09-29T18:22:41;4.43;;;2.17;;
16837;SDS011;19510;54.486;9.046;2022-09-29T18:25:12;3.35;;;2.47;;
16837;SDS011;19510;54.486;9.046;2022-09-29T18:27:39;3.17;;;2.33;;
16837;SDS011;19510;54.486;9.046;2022-09-29T18:32:49;2.85;;;2.00;;
16837;SDS011;19510;54.486;9.046;2022-09-29T18:35:27;2.17;;;1.90;;
16837;SDS011;19510;54.486;9.046;2022-09-29T18:37:57;3.30;;;2.13;;
16837;SDS011;19510;54.486;9.046;2022-09-29T18:40:27;4.85;;;2.28;;
16837;SDS011;19510;54.486;9.046;2022-09-29T18:42:54;5.63;;;2.53;;
16837;SDS011;19510;54.486;9.046;2022-09-29T18:45:25;3.85;;;2.38;;
16837;SDS011;19510;54.486;9.046;2022-09-29T18:47:57;3.28;;;2.55;;
16837;SDS011;19510;54.486;9.046;2022-09-29T18:50:25;3.78;;;2.40;;
16837;SDS011;19510;54.486;9.046;2022-09-29T18:52:55;2.90;;;1.83;;
16837;SDS011;19510;54.486;9.046;2022-09-29T18:55:24;3.35;;;2.15;;
16837;SDS011;19510;54.486;9.046;2022-09-29T18:57:51;1.85;;;1.52;;
16837;SDS011;19510;54.486;9.046;2022-09-29T19:00:20;2.97;;;1.98;;
16837;SDS011;19510;54.486;9.046;2022-09-29T19:02:49;2.80;;;2.05;;
16837;SDS011;19510;54.486;9.046;2022-09-29T19:05:19;4.40;;;2.05;;
16837;SDS011;19510;54.486;9.046;2022-09-29T19:07:53;2.53;;;1.90;;
16837;SDS011;19510;54.486;9.046;2022-09-29T19:10:25;5.57;;;2.17;;
16837;SDS011;19510;54.486;9.046;2022-09-29T19:12:56;3.65;;;2.15;;
16837;SDS011;19510;54.486;9.046;2022-09-29T19:15:25;4.43;;;2.53;;
16837;SDS011;19510;54.486;9.046;2022-09-29T19:17:52;4.03;;;2.42;;
16837;SDS011;19510;54.486;9.046;2022-09-29T19:20:21;6.32;;;4.32;;
16837;SDS011;19510;54.486;9.046;2022-09-29T19:22:49;4.40;;;2.20;;
16837;SDS011;19510;54.486;9.046;2022-09-29T19:25:17;5.40;;;2.65;;
16837;SDS011;19510;54.486;9.046;2022-09-29T19:27:46;4.55;;;2.25;;
16837;SDS011;19510;54.486;9.046;2022-09-29T19:30:13;3.20;;;2.10;;
16837;SDS011;19510;54.486;9.046;2022-09-29T19:32:42;4.05;;;1.90;;
16837;SDS011;19510;54.486;9.046;2022-09-29T19:35:09;5.25;;;2.33;;
16837;SDS011;19510;54.486;9.046;2022-09-29T19:37:37;2.80;;;2.10;;
16837;SDS011;19510;54.486;9.046;2022-09-29T19:40:06;2.63;;;2.20;;
16837;SDS011;19510;54.486;9.046;2022-09-29T19:42:34;4.15;;;2.20;;
16837;SDS011;19510;54.486;9.046;2022-09-29T19:45:01;4.00;;;1.75;;
16837;SDS011;19510;54.486;9.046;2022-09-29T19:47:28;7.25;;;1.77;;
16837;SDS011;19510;54.486;9.046;2022-09-29T19:49:56;7.82;;;2.15;;
16837;SDS011;19510;54.486;9.046;2022-09-29T19:52:42;3.80;;;2.00;;
16837;SDS011;19510;54.486;9.046;2022-09-29T19:55:07;3.90;;;2.20;;
16837;SDS011;19510;54.486;9.046;2022-09-29T19:57:35;2.53;;;2.20;;
16837;SDS011;19510;54.486;9.046;2022-09-29T20:00:05;3.05;;;2.00;;
16837;SDS011;19510;54.486;9.046;2022-09-29T20:02:32;2.95;;;1.67;;
16837;SDS011;19510;54.486;9.046;2022-09-29T20:04:58;5.57;;;2.38;;
16837;SDS011;19510;54.486;9.046;2022-09-29T20:07:25;4.55;;;1.80;;
16837;SDS011;19510;54.486;9.046;2022-09-29T20:09:51;4.40;;;2.15;;
16837;SDS011;19510;54.486;9.046;2022-09-29T20:12:17;3.08;;;2.13;;
16837;SDS011;19510;54.486;9.046;2022-09-29T20:14:42;4.93;;;2.00;;
16837;SDS011;19510;54.486;9.046;2022-09-29T20:17:11;4.35;;;2.40;;
16837;SDS011;19510;54.486;9.046;2022-09-29T20:19:39;4.32;;;2.17;;
16837;SDS011;19510;54.486;9.046;2022-09-29T20:22:05;8.52;;;2.10;;
16837;SDS011;19510;54.486;9.046;2022-09-29T20:24:36;2.58;;;1.67;;
16837;SDS011;19510;54.486;9.046;2022-09-29T20:27:05;4.43;;;2.20;;
16837;SDS011;19510;54.486;9.046;2022-09-29T20:29:33;3.03;;;2.00;;
16837;SDS011;19510;54.486;9.046;2022-09-29T20:31:59;4.40;;;1.98;;
16837;SDS011;19510;54.486;9.046;2022-09-29T20:34:30;6.57;;;2.60;;
16837;SDS011;19510;54.486;9.046;2022-09-29T20:36:58;2.10;;;1.85;;
16837;SDS011;19510;54.486;9.046;2022-09-29T20:39:23;5.45;;;2.42;;
16837;SDS011;19510;54.486;9.046;2022-09-29T20:41:52;5.70;;;2.85;;
16837;SDS011;19510;54.486;9.046;2022-09-29T20:44:19;5.07;;;3.63;;
16837;SDS011;19510;54.486;9.046;2022-09-29T20:46:49;3.80;;;3.17;;
16837;SDS011;19510;54.486;9.046;2022-09-29T20:49:17;3.85;;;3.28;;
16837;SDS011;19510;54.486;9.046;2022-09-29T20:51:43;4.88;;;3.28;;
16837;SDS011;19510;54.486;9.046;2022-09-29T20:54:10;5.47;;;2.70;;
16837;SDS011;19510;54.486;9.046;2022-09-29T20:56:39;5.57;;;2.65;;
16837;SDS011;19510;54.486;9.046;2022-09-29T20:59:07;4.40;;;2.60;;
16837;SDS011;19510;54.486;9.046;2022-09-29T21:01:42;2.97;;;2.13;;
16837;SDS011;19510;54.486;9.046;2022-09-29T21:04:09;4.45;;;2.10;;
16837;SDS011;19510;54.486;9.046;2022-09-29T21:06:38;3.53;;;2.67;;
16837;SDS011;19510;54.486;9.046;2022-09-29T21:09:06;5.50;;;2.95;;
16837;SDS011;19510;54.486;9.046;2022-09-29T21:11:37;3.42;;;2.13;;
16837;SDS011;19510;54.486;9.046;2022-09-29T21:14:08;3.42;;;2.53;;
16837;SDS011;19510;54.486;9.046;2022-09-29T21:16:36;3.85;;;2.30;;
16837;SDS011;19510;54.486;9.046;2022-09-29T21:19:06;2.88;;;1.70;;
16837;SDS011;19510;54.486;9.046;2022-09-29T21:21:33;2.72;;;1.98;;
16837;SDS011;19510;54.486;9.046;2022-09-29T21:23:59;2.70;;;1.88;;
16837;SDS011;19510;54.486;9.046;2022-09-29T21:26:27;3.10;;;2.00;;
16837;SDS011;19510;54.486;9.046;2022-09-29T21:28:55;3.85;;;2.42;;
16837;SDS011;19510;54.486;9.046;2022-09-29T21:31:24;6.60;;;2.28;;
16837;SDS011;19510;54.486;9.046;2022-09-29T21:33:52;5.65;;;3.25;;
16837;SDS011;19510;54.486;9.046;2022-09-29T21:36:21;5.22;;;2.03;;
16837;SDS011;19510;54.486;9.046;2022-09-29T21:38:48;3.13;;;2.00;;
16837;SDS011;19510;54.486;9.046;2022-09-29T21:41:19;3.17;;;1.75;;
16837;SDS011;19510;54.486;9.046;2022-09-29T21:43:51;4.65;;;2.45;;
